HOURLY OBS INDEX

025

Murray Mallee and Upper Southeast

KEITH (MUNKORA)

Site: 025557
Alt: 27.0m
46km WNW of BORDERTOWN


  Time     Wind        Temp  DP   Baro     Rain since   Rain past  Vis(m), Cloud(base in m), Weather
  local        km/h                         9am  last   hr   10m    
Tue 19:30   NE 13/ 15   7.5  4.5  1025.4    0.0   0.0   0.0   0.0   ----- 
Tue 20:00  NNE 13/ 17   8.1  4.5  1025.4    0.0   0.0   0.0   0.0   ----- 
Tue 20:30  NNE 11/ 17   7.9  4.1  1025.2    0.0   0.0   0.0   0.0   ----- 
Tue 21:00  NNE 13/ 17   7.6  4.0  1025.2    0.0   0.0   0.0   0.0   ----- 
Tue 21:30  NNE 15/ 20   7.5  4.1  1025.1    0.0   0.0   0.0   0.0   ----- 
Tue 22:00  NNE 11/ 17   7.1  3.7  1025.2    0.0   0.0   0.0   0.0   ----- 
Tue 22:30  NNE  9/ 15   6.6  3.6  1025.1    0.0   0.0   0.0   0.0   ----- 
Tue 23:00  NNE  7/  9   6.1  3.4  1025.1    0.0   0.0   0.0   0.0   ----- 
Tue 23:30  NNE  7/  9   5.6  2.9  1024.9    0.0   0.0   0.0   0.0   ----- 
Wed 00:00  NNE  4/  6   4.8  2.3  1025.0    0.0   0.0   0.0   0.0   ----- 
Wed 00:30    C  0/  2   4.9  2.8  1025.1    0.0   0.0   0.0   0.0   ----- 
Wed 00:30    C  0/  2   4.9  2.8  1025.1    0.0   0.0  ----   0.0   ----- 

LAMEROO (AUSTIN PLAINS)

Site: 025562
Alt: 110.1m
106km NNW of BORDERTOWN


  Time     Wind        Temp  DP   Baro     Rain since   Rain past  Vis(m), Cloud(base in m), Weather
  local        km/h                         9am  last   hr   10m    
Tue 19:30  NNE 11/ 13   6.9  4.6  1026.2    0.2   0.0   0.0   0.0   ----- 
Tue 20:00  NNE 13/ 15   6.9  4.0  1026.0    0.2   0.0   0.0   0.0   ----- 
Tue 20:30  NNE 15/ 19   7.0  4.1  1025.9    0.2   0.0   0.0   0.0   ----- 
Tue 21:00  NNE 13/ 15   7.0  4.0  1025.7    0.2   0.0   0.0   0.0   ----- 
Tue 21:30  NNE 15/ 17   6.9  3.9  1025.5    0.2   0.0   0.0   0.0   ----- 
Tue 22:00    N 17/ 20   7.0  4.0  1025.7    0.2   0.0   0.0   0.0   ----- 
Tue 22:30    N 15/ 17   6.4  3.6  1025.6    0.2   0.0   0.0   0.0   ----- 
Tue 23:00  NNE 15/ 19   5.8  3.3  1025.1    0.2   0.0   0.0   0.0   ----- 
Tue 23:30  NNE 17/ 20   5.7  3.4  1024.9    0.2   0.0   0.0   0.0   ----- 
Wed 00:00  NNE 15/ 20   5.9  3.6  1024.8    0.2   0.0   0.0   0.0   ----- 
Wed 00:30  NNE 19/ 22   5.9  3.6  1024.2    0.2   0.0   0.0   0.0   ----- 
Wed 00:30  NNE 19/ 22   5.9  3.6  1024.2    0.2   0.0  ----   0.0   -----